LL1A weather

Hatzerim Northwest Airport
Beersheba, Southern District, Israel

Public forecast

Using degrees Celsius for public forecast. Weather courtesy of forecast.io.

METAR (pilot weather report)

Closest report is El Arish International Airport, 42.8 nm (79.3 km) WSW. Retrieved 2019/03/26 01:00 UTC (57 minutes ago):

HEAR 260100Z 21003KT CAVOK 09/07 Q1011 NOSIG

TAF (pilot weather forecast)

Forecast is more than 12 hours old.

Closest forecast is El Gora Airport, 28.7 nm (53.1 km) WSW. Retrieved 2018/10/31 07:00 UTC (5 months ago):

TAF HEGR 310700Z 3107/0112 34009KT 9999 SCT020 BECMG 3119/3121 VRB03KT CAVOK BECMG 0107/0109 36008KT